Time;durP1;ratioP1;P1;durP2;ratioP2;P2;SDS_P1;SDS_P2;PMS_P1;PMS_P2;Temp;Humidity;BMP_temperature;BMP_pressure;BME280_temperature;BME280_humidity;BME280_pressure;Samples;Min_cycle;Max_cycle;Signal;HPM_P1;HPM_P2
2023/12/12 00:01:54;;;;;;;;;;;19.70;46.70;;;;;;5099930;28;19973;-63
2023/12/12 00:04:21;;;;;;;;;;;19.70;46.70;;;;;;5093745;28;19928;-63
2023/12/12 00:06:48;;;;;;;;;;;19.70;46.70;;;;;;5099478;28;20446;-63
2023/12/12 00:09:16;;;;;;;;;;;19.70;46.70;;;;;;5107949;28;19932;-63
2023/12/12 00:11:43;;;;;;;;;;;19.70;46.70;;;;;;5123404;27;19929;-63
2023/12/12 00:14:10;;;;;;;;;;;19.70;46.70;;;;;;5117099;27;19935;-63
2023/12/12 00:16:37;;;;;;;;;;;19.70;46.70;;;;;;5096738;28;19932;-63
2023/12/12 00:19:04;;;;;;;;;;;19.70;46.70;;;;;;5094020;28;19943;-63
2023/12/12 00:21:30;;;;;;;;;;;19.70;46.70;;;;;;5096650;28;19932;-63
2023/12/12 00:23:57;;;;;;;;;;;19.70;46.70;;;;;;5097453;28;19935;-63
2023/12/12 00:26:25;;;;;;;;;;;19.70;46.70;;;;;;5105100;28;19924;-63
2023/12/12 00:28:52;;;;;;;;;;;19.70;46.70;;;;;;5120416;27;20058;-60
2023/12/12 00:31:19;;;;;;;;;;;19.70;47.30;;;;;;5114681;27;19928;-61
2023/12/12 00:33:46;;;;;;;;;;;19.70;46.70;;;;;;5114567;28;19927;-60
2023/12/12 00:36:12;;;;;;;;;;;19.70;46.70;;;;;;5094724;28;19931;-61
2023/12/12 00:38:39;;;;;;;;;;;19.70;46.70;;;;;;5101193;27;19927;-61
2023/12/12 00:41:07;;;;;;;;;;;19.70;46.70;;;;;;5116704;27;20263;-60
2023/12/12 00:43:35;;;;;;;;;;;19.70;46.70;;;;;;5095865;28;19959;-60
2023/12/12 00:46:02;;;;;;;;;;;19.70;46.70;;;;;;5090530;28;19924;-60
2023/12/12 00:48:29;;;;;;;;;;;19.70;46.70;;;;;;5096575;28;20407;-61
2023/12/12 00:50:55;;;;;;;;;;;19.70;46.70;;;;;;5096456;28;19927;-60
2023/12/12 00:53:22;;;;;;;;;;;19.70;46.70;;;;;;5088191;28;19927;-61
2023/12/12 00:55:49;;;;;;;;;;;19.70;46.70;;;;;;5096946;28;19932;-60
2023/12/12 00:58:15;;;;;;;;;;;19.70;46.70;;;;;;5103360;28;19924;-61
2023/12/12 01:00:44;;;;;;;;;;;19.70;46.70;;;;;;5093337;28;19924;-61
2023/12/12 01:03:10;;;;;;;;;;;19.70;46.70;;;;;;5118719;27;19942;-61
2023/12/12 01:05:37;;;;;;;;;;;19.70;46.70;;;;;;5096571;28;20048;-61
2023/12/12 01:08:04;;;;;;;;;;;19.70;46.70;;;;;;5113880;28;20377;-61
2023/12/12 01:10:31;;;;;;;;;;;19.70;46.70;;;;;;5114490;28;19936;-60
2023/12/12 01:13:00;;;;;;;;;;;19.70;46.70;;;;;;5092726;28;19928;-60
2023/12/12 01:15:27;;;;;;;;;;;19.70;46.70;;;;;;5079242;28;19938;-61
2023/12/12 01:17:55;;;;;;;;;;;19.70;46.70;;;;;;5095727;28;19924;-61
2023/12/12 01:20:21;;;;;;;;;;;19.70;46.70;;;;;;5104228;28;19965;-61
2023/12/12 01:22:48;;;;;;;;;;;19.70;46.70;;;;;;5096161;28;19981;-60
2023/12/12 01:25:15;;;;;;;;;;;19.70;46.70;;;;;;5095133;28;19924;-60
2023/12/12 01:27:42;;;;;;;;;;;19.70;46.70;;;;;;5097774;28;19946;-61
2023/12/12 01:30:09;;;;;;;;;;;19.70;46.70;;;;;;5097544;28;19924;-61
2023/12/12 01:32:35;;;;;;;;;;;19.70;46.70;;;;;;5099507;28;19931;-60
2023/12/12 01:35:04;;;;;;;;;;;19.70;46.70;;;;;;5095102;28;19935;-60
2023/12/12 01:37:30;;;;;;;;;;;19.70;46.70;;;;;;5103487;28;19947;-60
2023/12/12 01:39:57;;;;;;;;;;;19.70;46.70;;;;;;5098792;28;19924;-60
2023/12/12 01:42:24;;;;;;;;;;;19.70;46.70;;;;;;5095283;28;19932;-60
2023/12/12 01:44:51;;;;;;;;;;;19.70;46.70;;;;;;5112800;27;19927;-61
2023/12/12 01:47:17;;;;;;;;;;;19.70;46.70;;;;;;5095021;28;19923;-60
2023/12/12 01:49:44;;;;;;;;;;;19.70;46.70;;;;;;5094152;28;19928;-60
2023/12/12 01:52:13;;;;;;;;;;;19.70;46.70;;;;;;5110722;27;19927;-60
2023/12/12 01:54:40;;;;;;;;;;;19.70;46.70;;;;;;5119248;27;19931;-60
2023/12/12 01:57:20;;;;;;;;;;;19.70;46.60;;;;;;5103012;28;19923;-60
2023/12/12 01:59:46;;;;;;;;;;;19.70;46.60;;;;;;5114532;27;19924;-60
2023/12/12 02:02:13;;;;;;;;;;;19.70;46.60;;;;;;5093957;28;19976;-60
2023/12/12 02:04:40;;;;;;;;;;;19.70;46.60;;;;;;5100517;28;19946;-61
2023/12/12 02:07:07;;;;;;;;;;;19.70;46.60;;;;;;5098350;28;19931;-60
2023/12/12 02:09:35;;;;;;;;;;;19.70;46.60;;;;;;5113294;28;19924;-61
2023/12/12 02:12:02;;;;;;;;;;;19.70;46.60;;;;;;5103407;28;19931;-61
2023/12/12 02:14:29;;;;;;;;;;;19.70;46.70;;;;;;5102635;28;19924;-61
2023/12/12 02:16:56;;;;;;;;;;;19.70;46.70;;;;;;5108510;27;19928;-60
2023/12/12 02:19:22;;;;;;;;;;;19.70;46.70;;;;;;5096581;27;19924;-60
2023/12/12 02:21:51;;;;;;;;;;;19.70;46.60;;;;;;5103190;27;19976;-60
2023/12/12 02:24:19;;;;;;;;;;;19.70;46.60;;;;;;5117891;27;19924;-60
2023/12/12 02:26:46;;;;;;;;;;;19.70;46.60;;;;;;5102437;28;20031;-60
2023/12/12 02:29:12;;;;;;;;;;;19.70;46.60;;;;;;5119876;27;19930;-61
2023/12/12 02:31:39;;;;;;;;;;;19.70;46.60;;;;;;5094455;28;19924;-60
2023/12/12 02:34:06;;;;;;;;;;;19.70;46.60;;;;;;5109595;28;19935;-60
2023/12/12 02:36:33;;;;;;;;;;;19.70;46.60;;;;;;5094237;28;19931;-60
2023/12/12 02:39:01;;;;;;;;;;;19.70;46.60;;;;;;5094673;28;19973;-60
2023/12/12 02:41:28;;;;;;;;;;;19.70;46.60;;;;;;5111992;28;19946;-60
2023/12/12 02:43:55;;;;;;;;;;;19.70;46.60;;;;;;5112369;28;19924;-60
2023/12/12 02:46:22;;;;;;;;;;;19.70;46.60;;;;;;5103120;28;19932;-60
2023/12/12 02:48:48;;;;;;;;;;;19.70;46.60;;;;;;5091496;28;19924;-60
2023/12/12 02:51:15;;;;;;;;;;;19.70;46.60;;;;;;5098088;28;19924;-60
2023/12/12 02:53:42;;;;;;;;;;;19.70;46.60;;;;;;5089801;28;19927;-60
2023/12/12 02:56:10;;;;;;;;;;;19.70;46.60;;;;;;5111044;28;19924;-60
2023/12/12 02:58:37;;;;;;;;;;;19.70;46.60;;;;;;5103387;28;19976;-60
2023/12/12 03:01:04;;;;;;;;;;;19.70;46.60;;;;;;5098981;28;19931;-60
2023/12/12 03:03:30;;;;;;;;;;;19.70;46.50;;;;;;5110024;28;19981;-60
2023/12/12 03:05:57;;;;;;;;;;;19.70;46.60;;;;;;5085983;28;19974;-60
2023/12/12 03:08:24;;;;;;;;;;;19.70;46.60;;;;;;5111634;28;19924;-60
2023/12/12 03:10:50;;;;;;;;;;;19.70;46.50;;;;;;5095067;28;19924;-60
2023/12/12 03:13:19;;;;;;;;;;;19.70;46.60;;;;;;5097041;28;19923;-60
2023/12/12 03:15:45;;;;;;;;;;;19.60;46.40;;;;;;5110812;28;19928;-60
2023/12/12 03:18:12;;;;;;;;;;;19.70;46.60;;;;;;5091787;28;19928;-60
2023/12/12 03:20:39;;;;;;;;;;;19.70;46.50;;;;;;5109874;28;19923;-60
2023/12/12 03:23:05;;;;;;;;;;;19.70;46.50;;;;;;5100479;28;19973;-60
2023/12/12 03:25:32;;;;;;;;;;;19.70;46.60;;;;;;5110635;28;19928;-60
2023/12/12 03:27:59;;;;;;;;;;;19.70;46.60;;;;;;5100375;28;19947;-60
2023/12/12 03:30:27;;;;;;;;;;;19.60;46.50;;;;;;5100883;28;19931;-60
2023/12/12 03:32:54;;;;;;;;;;;19.70;46.50;;;;;;5110870;28;19930;-59
2023/12/12 03:35:21;;;;;;;;;;;19.70;46.50;;;;;;5110671;28;19924;-60
2023/12/12 03:37:47;;;;;;;;;;;19.70;46.50;;;;;;5097363;28;19946;-60
2023/12/12 03:40:14;;;;;;;;;;;19.60;46.40;;;;;;5099361;28;19924;-60
2023/12/12 03:42:41;;;;;;;;;;;19.60;46.40;;;;;;5109707;28;19924;-60
2023/12/12 03:45:08;;;;;;;;;;;19.60;46.40;;;;;;5110517;28;19984;-60
2023/12/12 03:47:37;;;;;;;;;;;19.60;46.40;;;;;;5109700;28;19924;-60
2023/12/12 03:50:04;;;;;;;;;;;19.60;46.40;;;;;;5097084;28;19923;-60
2023/12/12 03:52:30;;;;;;;;;;;19.60;46.40;;;;;;5096541;28;19927;-60
2023/12/12 03:54:57;;;;;;;;;;;19.70;46.50;;;;;;5110051;28;19931;-60
2023/12/12 03:57:24;;;;;;;;;;;19.60;46.40;;;;;;5113388;27;19924;-60
2023/12/12 03:59:50;;;;;;;;;;;19.60;46.40;;;;;;5113616;28;20050;-60
2023/12/12 04:02:17;;;;;;;;;;;19.60;47.00;;;;;;5095965;28;19928;-60
2023/12/12 04:04:45;;;;;;;;;;;19.60;46.40;;;;;;5103349;28;19946;-61
2023/12/12 04:07:12;;;;;;;;;;;19.60;46.40;;;;;;5101266;28;20302;-60
2023/12/12 04:09:39;;;;;;;;;;;19.60;46.40;;;;;;5098401;28;19932;-60
2023/12/12 04:12:07;;;;;;;;;;;19.60;46.40;;;;;;5116933;27;19924;-63
2023/12/12 04:14:33;;;;;;;;;;;19.60;46.40;;;;;;5115442;28;19924;-62
2023/12/12 04:17:00;;;;;;;;;;;19.60;46.40;;;;;;5093885;28;19931;-63
2023/12/12 04:19:27;;;;;;;;;;;19.60;46.40;;;;;;5113134;28;19923;-60
2023/12/12 04:21:55;;;;;;;;;;;19.60;46.40;;;;;;5114258;28;20339;-60
2023/12/12 04:24:22;;;;;;;;;;;19.60;46.40;;;;;;5114951;28;19928;-63
2023/12/12 04:26:48;;;;;;;;;;;19.60;46.40;;;;;;5099758;28;19924;-63
2023/12/12 04:29:15;;;;;;;;;;;19.60;46.40;;;;;;5105193;28;19924;-63
2023/12/12 04:31:42;;;;;;;;;;;19.60;46.40;;;;;;5100312;28;19927;-63
2023/12/12 04:34:09;;;;;;;;;;;19.60;46.40;;;;;;5092564;28;19923;-63
2023/12/12 04:36:36;;;;;;;;;;;19.60;46.40;;;;;;5097583;28;19923;-60
2023/12/12 04:39:05;;;;;;;;;;;19.60;46.40;;;;;;5094640;28;19923;-60
2023/12/12 04:41:32;;;;;;;;;;;19.60;46.40;;;;;;5113520;28;20045;-60
2023/12/12 04:43:59;;;;;;;;;;;19.60;46.40;;;;;;5103737;28;19927;-61
2023/12/12 04:46:26;;;;;;;;;;;19.60;46.40;;;;;;5096145;28;19950;-60
2023/12/12 04:48:52;;;;;;;;;;;19.60;46.30;;;;;;5098994;28;19935;-61
2023/12/12 04:51:21;;;;;;;;;;;19.60;46.30;;;;;;5097993;28;20196;-60
2023/12/12 04:53:48;;;;;;;;;;;19.60;46.30;;;;;;5099150;28;19927;-63
2023/12/12 04:56:16;;;;;;;;;;;19.60;46.40;;;;;;5112955;28;19927;-60
2023/12/12 04:58:43;;;;;;;;;;;19.60;46.30;;;;;;5096097;28;19972;-60
2023/12/12 05:01:09;;;;;;;;;;;19.60;46.40;;;;;;5101916;28;19964;-60
2023/12/12 05:03:36;;;;;;;;;;;19.60;46.30;;;;;;5095832;28;20018;-60
2023/12/12 05:06:03;;;;;;;;;;;19.60;46.30;;;;;;5096170;27;19924;-60
2023/12/12 05:08:30;;;;;;;;;;;19.60;46.30;;;;;;5106741;28;20163;-60
2023/12/12 05:10:57;;;;;;;;;;;19.60;46.30;;;;;;5109234;27;19924;-60
2023/12/12 05:13:25;;;;;;;;;;;19.60;46.30;;;;;;5096135;28;19977;-61
2023/12/12 05:15:52;;;;;;;;;;;19.60;46.30;;;;;;5113698;28;19928;-60
2023/12/12 05:18:18;;;;;;;;;;;19.60;46.30;;;;;;5096150;28;19931;-61
2023/12/12 05:20:45;;;;;;;;;;;19.60;46.30;;;;;;5113540;28;19935;-61
2023/12/12 05:23:12;;;;;;;;;;;19.60;46.30;;;;;;5089081;28;20118;-61
2023/12/12 05:25:39;;;;;;;;;;;19.60;46.30;;;;;;5095518;28;19924;-60
2023/12/12 05:28:06;;;;;;;;;;;19.60;46.30;;;;;;5094830;28;19924;-60
2023/12/12 05:30:34;;;;;;;;;;;19.60;46.30;;;;;;5110618;28;19955;-63
2023/12/12 05:33:01;;;;;;;;;;;19.60;46.30;;;;;;5113445;28;19923;-63
2023/12/12 05:35:28;;;;;;;;;;;19.60;46.30;;;;;;5110054;28;19927;-63
2023/12/12 05:37:55;;;;;;;;;;;19.60;46.30;;;;;;5094529;28;19931;-62
2023/12/12 05:40:21;;;;;;;;;;;19.60;46.30;;;;;;5110900;28;20186;-60
2023/12/12 05:42:48;;;;;;;;;;;19.60;46.30;;;;;;5108633;28;19927;-60
2023/12/12 05:45:15;;;;;;;;;;;19.60;46.30;;;;;;5094741;28;19935;-60
2023/12/12 05:47:43;;;;;;;;;;;19.60;46.30;;;;;;5093759;28;19934;-60
2023/12/12 05:50:11;;;;;;;;;;;19.60;46.30;;;;;;5092838;28;19972;-60
2023/12/12 05:52:38;;;;;;;;;;;19.60;46.20;;;;;;5094740;28;20019;-60
2023/12/12 05:55:05;;;;;;;;;;;19.60;46.20;;;;;;5094196;28;19927;-60
2023/12/12 05:57:32;;;;;;;;;;;19.60;46.30;;;;;;5112116;27;19924;-60
2023/12/12 05:59:59;;;;;;;;;;;19.60;46.30;;;;;;5112494;28;20013;-60
2023/12/12 06:02:26;;;;;;;;;;;19.60;46.30;;;;;;5078482;28;19924;-60
2023/12/12 06:04:54;;;;;;;;;;;19.60;46.20;;;;;;5094920;28;19982;-60
2023/12/12 06:07:21;;;;;;;;;;;19.60;46.20;;;;;;5097550;28;19924;-60
2023/12/12 06:09:48;;;;;;;;;;;19.60;46.20;;;;;;5104769;28;19924;-60
2023/12/12 06:12:17;;;;;;;;;;;19.60;46.20;;;;;;5099151;28;20000;-60
2023/12/12 06:14:44;;;;;;;;;;;19.60;46.20;;;;;;5092982;28;19924;-60
2023/12/12 06:17:11;;;;;;;;;;;19.60;46.20;;;;;;5111650;28;19924;-60
2023/12/12 06:19:38;;;;;;;;;;;19.60;46.20;;;;;;5097854;28;20387;-60
2023/12/12 06:22:07;;;;;;;;;;;19.60;46.20;;;;;;5105142;28;19924;-60
2023/12/12 06:24:34;;;;;;;;;;;19.60;46.20;;;;;;5097892;28;19930;-63
2023/12/12 06:27:01;;;;;;;;;;;19.60;46.20;;;;;;5107678;27;20028;-60
2023/12/12 06:29:27;;;;;;;;;;;19.60;46.20;;;;;;5102447;28;19928;-60
2023/12/12 06:31:54;;;;;;;;;;;19.60;46.20;;;;;;5100270;28;19928;-60
2023/12/12 06:34:21;;;;;;;;;;;19.60;46.20;;;;;;5111525;28;19923;-60
2023/12/12 06:36:48;;;;;;;;;;;19.60;46.20;;;;;;5100181;28;19928;-60
2023/12/12 06:39:16;;;;;;;;;;;19.60;46.20;;;;;;5099251;27;19931;-61
2023/12/12 06:41:43;;;;;;;;;;;19.60;46.20;;;;;;5110027;27;19989;-61
2023/12/12 06:44:10;;;;;;;;;;;19.60;46.20;;;;;;5093080;28;19977;-60
2023/12/12 06:46:38;;;;;;;;;;;19.60;46.20;;;;;;5087859;28;19936;-61
2023/12/12 06:49:06;;;;;;;;;;;19.60;46.20;;;;;;5109486;28;20582;-60
2023/12/12 06:51:33;;;;;;;;;;;19.60;46.20;;;;;;5084304;28;20034;-60
2023/12/12 06:54:00;;;;;;;;;;;19.60;46.20;;;;;;5093997;28;19989;-60
2023/12/12 06:56:28;;;;;;;;;;;19.60;46.20;;;;;;5099208;28;19927;-60
2023/12/12 06:58:54;;;;;;;;;;;19.60;46.20;;;;;;5093413;28;19924;-60
2023/12/12 07:01:21;;;;;;;;;;;19.60;46.20;;;;;;5102590;28;19924;-60
2023/12/12 07:03:48;;;;;;;;;;;19.60;46.20;;;;;;5082685;28;19943;-60
2023/12/12 07:06:16;;;;;;;;;;;19.60;46.20;;;;;;5107086;28;19962;-60
2023/12/12 07:08:43;;;;;;;;;;;19.60;46.20;;;;;;5091794;28;19928;-60
2023/12/12 07:11:09;;;;;;;;;;;19.60;46.20;;;;;;5112697;28;20015;-60
2023/12/12 07:13:37;;;;;;;;;;;19.60;46.20;;;;;;5093869;28;19934;-61
2023/12/12 07:16:05;;;;;;;;;;;19.60;46.20;;;;;;5093413;28;19923;-60
2023/12/12 07:18:32;;;;;;;;;;;19.60;46.20;;;;;;5100705;28;19969;-60
2023/12/12 07:20:59;;;;;;;;;;;19.60;46.20;;;;;;5092781;28;19978;-60
2023/12/12 07:23:26;;;;;;;;;;;19.60;46.20;;;;;;5094795;28;19973;-60
2023/12/12 07:25:52;;;;;;;;;;;19.60;46.20;;;;;;5116388;28;19935;-60
2023/12/12 07:28:20;;;;;;;;;;;19.60;46.20;;;;;;5098503;28;19924;-60
2023/12/12 07:30:49;;;;;;;;;;;19.60;46.20;;;;;;5106424;28;19923;-60
2023/12/12 07:33:15;;;;;;;;;;;19.60;46.20;;;;;;5098275;28;19924;-60
2023/12/12 07:35:42;;;;;;;;;;;19.60;46.20;;;;;;5100834;28;19931;-60
2023/12/12 07:38:09;;;;;;;;;;;19.60;46.30;;;;;;5116207;28;19924;-60
2023/12/12 07:40:35;;;;;;;;;;;19.60;46.20;;;;;;5098017;28;19946;-60
2023/12/12 07:43:02;;;;;;;;;;;19.60;46.20;;;;;;5097419;28;19923;-60
2023/12/12 07:45:29;;;;;;;;;;;19.60;46.30;;;;;;5105441;28;19923;-61
2023/12/12 07:47:57;;;;;;;;;;;19.60;46.30;;;;;;5097445;28;19924;-60
2023/12/12 07:50:24;;;;;;;;;;;19.60;46.30;;;;;;5088762;28;19930;-60
2023/12/12 07:52:51;;;;;;;;;;;19.60;46.30;;;;;;5115509;28;19928;-60
2023/12/12 07:55:19;;;;;;;;;;;19.60;46.30;;;;;;5097453;28;19928;-60
2023/12/12 07:57:46;;;;;;;;;;;19.60;46.30;;;;;;5097026;28;20010;-60
2023/12/12 08:00:13;;;;;;;;;;;19.60;46.30;;;;;;5115583;28;19931;-60
2023/12/12 08:02:41;;;;;;;;;;;19.60;46.30;;;;;;5097434;28;19924;-60
2023/12/12 08:05:09;;;;;;;;;;;19.60;46.30;;;;;;5096372;28;19931;-60
2023/12/12 08:07:36;;;;;;;;;;;19.60;46.30;;;;;;5092760;28;19931;-60
2023/12/12 08:10:03;;;;;;;;;;;19.60;46.30;;;;;;5106191;27;19935;-60
2023/12/12 08:12:29;;;;;;;;;;;19.60;46.30;;;;;;5115287;28;20018;-60
2023/12/12 08:14:56;;;;;;;;;;;19.60;46.30;;;;;;5096683;28;19930;-60
2023/12/12 08:17:23;;;;;;;;;;;19.60;46.30;;;;;;5105161;28;19934;-60
2023/12/12 08:19:50;;;;;;;;;;;19.60;46.30;;;;;;5109822;28;19931;-60
2023/12/12 08:22:18;;;;;;;;;;;19.60;46.30;;;;;;5105191;28;19939;-60
2023/12/12 08:24:45;;;;;;;;;;;19.60;46.30;;;;;;5096687;28;19924;-60
2023/12/12 08:27:13;;;;;;;;;;;19.70;46.30;;;;;;5097252;28;19930;-60
2023/12/12 08:29:39;;;;;;;;;;;19.70;46.30;;;;;;5097097;28;19924;-60
2023/12/12 08:32:06;;;;;;;;;;;19.60;46.30;;;;;;5103065;28;19931;-60
2023/12/12 08:34:33;;;;;;;;;;;19.70;46.30;;;;;;5096287;28;19923;-60
2023/12/12 08:37:01;;;;;;;;;;;19.60;46.30;;;;;;5104608;28;20363;-60
2023/12/12 08:39:30;;;;;;;;;;;19.70;46.30;;;;;;5097083;28;19930;-60
2023/12/12 08:41:57;;;;;;;;;;;19.70;46.30;;;;;;5097182;28;20236;-60
2023/12/12 08:44:24;;;;;;;;;;;19.70;46.30;;;;;;5114638;28;19924;-60
2023/12/12 08:46:51;;;;;;;;;;;19.70;46.30;;;;;;5114586;28;19923;-60
2023/12/12 08:49:18;;;;;;;;;;;19.70;46.30;;;;;;5096704;28;19924;-60
2023/12/12 08:51:45;;;;;;;;;;;19.70;46.30;;;;;;5087756;28;19981;-60
2023/12/12 08:54:12;;;;;;;;;;;19.70;46.30;;;;;;5096253;28;19969;-60
2023/12/12 08:56:42;;;;;;;;;;;19.70;46.30;;;;;;5096483;28;20398;-60
2023/12/12 08:59:09;;;;;;;;;;;19.70;46.30;;;;;;5096582;28;19949;-60
2023/12/12 09:01:35;;;;;;;;;;;19.70;46.30;;;;;;5096417;28;19980;-60
2023/12/12 09:04:02;;;;;;;;;;;19.70;46.30;;;;;;5114276;28;20373;-60
2023/12/12 09:06:29;;;;;;;;;;;19.70;46.30;;;;;;5104591;28;19928;-60
2023/12/12 09:08:56;;;;;;;;;;;19.70;46.30;;;;;;5114902;28;19923;-60
2023/12/12 09:11:22;;;;;;;;;;;19.70;46.30;;;;;;5113830;27;19959;-60
2023/12/12 09:13:51;;;;;;;;;;;19.70;46.30;;;;;;5114098;28;19961;-60
2023/12/12 09:16:17;;;;;;;;;;;19.70;46.30;;;;;;5095841;28;19923;-60
2023/12/12 09:18:44;;;;;;;;;;;19.70;46.30;;;;;;5095777;28;19924;-60
2023/12/12 09:21:11;;;;;;;;;;;19.70;46.30;;;;;;5113942;28;19924;-60
2023/12/12 09:23:40;;;;;;;;;;;19.70;46.30;;;;;;5113695;28;19927;-60
2023/12/12 09:26:06;;;;;;;;;;;19.70;46.30;;;;;;5095604;28;19931;-60
2023/12/12 09:28:33;;;;;;;;;;;19.70;46.30;;;;;;5114344;28;19984;-60
2023/12/12 09:31:01;;;;;;;;;;;19.70;46.30;;;;;;5095835;28;20018;-60
2023/12/12 09:33:28;;;;;;;;;;;19.70;46.30;;;;;;5103277;28;19977;-60
2023/12/12 09:35:55;;;;;;;;;;;19.70;46.30;;;;;;5096302;28;19919;-60
2023/12/12 09:38:22;;;;;;;;;;;19.70;46.30;;;;;;5087743;28;19924;-60
2023/12/12 09:40:48;;;;;;;;;;;19.70;46.30;;;;;;5095935;28;19931;-60
2023/12/12 09:43:15;;;;;;;;;;;19.70;46.30;;;;;;5103990;28;19973;-60
2023/12/12 09:45:43;;;;;;;;;;;19.70;46.30;;;;;;5095709;28;19924;-60
2023/12/12 09:48:11;;;;;;;;;;;19.70;46.30;;;;;;5095501;28;19928;-60
2023/12/12 09:50:38;;;;;;;;;;;19.70;46.30;;;;;;5095580;28;19931;-60
2023/12/12 09:53:05;;;;;;;;;;;19.70;46.30;;;;;;5095346;28;20396;-60
2023/12/12 09:55:31;;;;;;;;;;;19.70;46.30;;;;;;5103916;28;19931;-60
2023/12/12 09:57:58;;;;;;;;;;;19.70;46.30;;;;;;5109251;28;19923;-60
2023/12/12 10:00:25;;;;;;;;;;;19.70;46.30;;;;;;5113651;28;19923;-60
2023/12/12 10:02:55;;;;;;;;;;;19.70;46.30;;;;;;5095387;28;19928;-60
2023/12/12 10:05:23;;;;;;;;;;;19.70;46.30;;;;;;5095131;28;19924;-60
2023/12/12 10:07:49;;;;;;;;;;;19.70;46.30;;;;;;5094968;28;20419;-60
2023/12/12 10:10:16;;;;;;;;;;;19.70;46.30;;;;;;5103370;28;19932;-61
2023/12/12 10:12:43;;;;;;;;;;;19.70;46.30;;;;;;5095203;28;20502;-60
2023/12/12 10:15:23;;;;;;;;;;;19.70;46.30;;;;;;5113343;28;19932;-60
2023/12/12 10:17:51;;;;;;;;;;;19.70;46.30;;;;;;5094906;28;19928;-60
2023/12/12 10:20:26;;;;;;;;;;;19.70;46.30;;;;;;5094176;28;19945;-60
2023/12/12 10:22:57;;;;;;;;;;;19.70;46.30;;;;;;5097652;28;20022;-60
2023/12/12 10:25:24;;;;;;;;;;;19.70;46.30;;;;;;5093390;28;19923;-60
2023/12/12 10:27:52;;;;;;;;;;;19.70;46.30;;;;;;5106525;28;19965;-60
2023/12/12 10:30:19;;;;;;;;;;;19.70;46.90;;;;;;5110590;28;19928;-60
2023/12/12 10:32:46;;;;;;;;;;;19.70;46.30;;;;;;5127523;27;19969;-60
2023/12/12 10:35:13;;;;;;;;;;;19.70;46.30;;;;;;5102370;28;19973;-60
2023/12/12 10:37:41;;;;;;;;;;;19.70;46.30;;;;;;5107696;28;19928;-60
2023/12/12 10:40:11;;;;;;;;;;;19.70;46.30;;;;;;5101937;28;19972;-60
2023/12/12 10:42:40;;;;;;;;;;;19.70;46.30;;;;;;5111355;28;19927;-60
2023/12/12 10:45:06;;;;;;;;;;;19.70;46.30;;;;;;5103655;28;19920;-60
2023/12/12 10:47:33;;;;;;;;;;;19.70;46.30;;;;;;5108122;28;19927;-60
2023/12/12 10:50:01;;;;;;;;;;;19.70;46.30;;;;;;5093152;28;19977;-61
2023/12/12 10:52:28;;;;;;;;;;;19.70;46.30;;;;;;5110483;28;19927;-60
2023/12/12 10:54:57;;;;;;;;;;;19.70;46.30;;;;;;5111247;28;19927;-60
2023/12/12 10:57:24;;;;;;;;;;;19.70;46.30;;;;;;5085521;28;19935;-60
2023/12/12 10:59:51;;;;;;;;;;;19.70;46.30;;;;;;5110669;28;19928;-60
2023/12/12 11:02:18;;;;;;;;;;;19.70;46.30;;;;;;5092803;28;20015;-60
2023/12/12 11:04:45;;;;;;;;;;;19.70;46.30;;;;;;5092388;28;19923;-60
2023/12/12 11:07:12;;;;;;;;;;;19.70;46.30;;;;;;5092609;28;19928;-59
2023/12/12 11:09:38;;;;;;;;;;;19.70;46.30;;;;;;5111313;28;19923;-60
2023/12/12 11:12:07;;;;;;;;;;;19.70;46.30;;;;;;5092941;28;19977;-60
2023/12/12 11:14:34;;;;;;;;;;;19.70;46.30;;;;;;5111598;28;19923;-60
2023/12/12 11:17:00;;;;;;;;;;;19.70;46.30;;;;;;5096617;28;19995;-63
2023/12/12 11:19:27;;;;;;;;;;;19.70;46.30;;;;;;5094190;28;19924;-62
2023/12/12 11:21:54;;;;;;;;;;;19.70;46.40;;;;;;5094163;28;19924;-63
2023/12/12 11:24:21;;;;;;;;;;;19.70;46.30;;;;;;5102623;28;19973;-60
2023/12/12 11:26:48;;;;;;;;;;;19.70;46.30;;;;;;5111515;28;19923;-60
2023/12/12 11:29:18;;;;;;;;;;;19.70;46.40;;;;;;5110363;28;19948;-60
2023/12/12 11:31:57;;;;;;;;;;;19.70;46.40;;;;;;5101175;28;19935;-60
2023/12/12 11:34:24;;;;;;;;;;;19.70;46.30;;;;;;5101377;28;19928;-60
2023/12/12 11:36:51;;;;;;;;;;;19.70;46.30;;;;;;5109452;28;19927;-60
2023/12/12 11:39:19;;;;;;;;;;;19.70;46.30;;;;;;5101609;28;19927;-60
2023/12/12 11:41:46;;;;;;;;;;;19.70;46.30;;;;;;5106716;28;20261;-60
2023/12/12 11:44:12;;;;;;;;;;;19.70;46.30;;;;;;5101210;28;19928;-60
2023/12/12 11:46:41;;;;;;;;;;;19.70;46.30;;;;;;5099537;28;19976;-60
2023/12/12 11:49:22;;;;;;;;;;;19.70;46.30;;;;;;5094449;28;19973;-60
2023/12/12 11:51:50;;;;;;;;;;;19.70;46.30;;;;;;5091227;28;20043;-60
2023/12/12 11:54:20;;;;;;;;;;;19.70;46.40;;;;;;5093901;28;20015;-60
2023/12/12 11:56:47;;;;;;;;;;;19.70;46.40;;;;;;5102532;28;19928;-60
2023/12/12 11:59:21;;;;;;;;;;;19.70;46.30;;;;;;5093401;28;19959;-60
2023/12/12 12:01:49;;;;;;;;;;;19.70;46.40;;;;;;5111480;28;19931;-60
2023/12/12 12:04:16;;;;;;;;;;;19.70;46.30;;;;;;5101400;28;20303;-60
2023/12/12 12:06:43;;;;;;;;;;;19.70;46.30;;;;;;5098942;28;19931;-60
2023/12/12 12:09:10;;;;;;;;;;;19.70;46.40;;;;;;5093806;28;20022;-60
2023/12/12 12:11:37;;;;;;;;;;;19.70;46.30;;;;;;5098302;28;19923;-60
2023/12/12 12:14:04;;;;;;;;;;;19.70;46.30;;;;;;5115210;28;19923;-60
2023/12/12 12:16:30;;;;;;;;;;;19.70;46.30;;;;;;5097882;28;19931;-60
2023/12/12 12:18:59;;;;;;;;;;;19.70;46.40;;;;;;5108565;28;19924;-61
2023/12/12 12:21:25;;;;;;;;;;;19.70;46.40;;;;;;5114268;28;20585;-61
2023/12/12 12:23:52;;;;;;;;;;;19.70;46.30;;;;;;5096636;28;19924;-60
2023/12/12 12:26:19;;;;;;;;;;;19.70;46.40;;;;;;5096201;28;19931;-60
2023/12/12 12:28:46;;;;;;;;;;;19.70;46.30;;;;;;5114842;28;19924;-60
2023/12/12 12:31:13;;;;;;;;;;;19.70;46.40;;;;;;5096654;28;19923;-60
2023/12/12 12:33:40;;;;;;;;;;;19.70;46.30;;;;;;5114801;28;19995;-60
2023/12/12 12:36:08;;;;;;;;;;;19.70;46.30;;;;;;5114586;28;19924;-60
2023/12/12 12:38:35;;;;;;;;;;;19.70;46.40;;;;;;5114893;28;19977;-60
2023/12/12 12:41:02;;;;;;;;;;;19.70;46.40;;;;;;5096684;28;19988;-60
2023/12/12 12:43:29;;;;;;;;;;;19.70;46.40;;;;;;5115202;28;19924;-60
2023/12/12 12:45:56;;;;;;;;;;;19.70;46.40;;;;;;5109827;28;19932;-60
2023/12/12 12:48:23;;;;;;;;;;;19.70;46.40;;;;;;5104968;28;19927;-60
2023/12/12 12:50:49;;;;;;;;;;;19.70;46.40;;;;;;5113026;28;19924;-60
2023/12/12 12:53:18;;;;;;;;;;;19.70;46.40;;;;;;5096548;28;19924;-60
2023/12/12 12:55:44;;;;;;;;;;;19.70;46.30;;;;;;5107467;28;19924;-60
2023/12/12 12:58:11;;;;;;;;;;;19.70;46.40;;;;;;5097057;28;19989;-60
2023/12/12 13:00:38;;;;;;;;;;;19.70;46.40;;;;;;5113861;28;20379;-60
2023/12/12 13:03:05;;;;;;;;;;;19.70;46.40;;;;;;5103770;28;19923;-60
2023/12/12 13:05:32;;;;;;;;;;;19.70;46.40;;;;;;5104058;28;19935;-60
2023/12/12 13:07:58;;;;;;;;;;;19.70;46.30;;;;;;5095450;28;20380;-60
2023/12/12 13:10:27;;;;;;;;;;;19.70;46.30;;;;;;5111169;28;19970;-60
2023/12/12 13:12:54;;;;;;;;;;;19.70;46.30;;;;;;5095464;28;19958;-60
2023/12/12 13:15:20;;;;;;;;;;;19.70;46.40;;;;;;5113420;28;19924;-60
2023/12/12 13:17:47;;;;;;;;;;;19.70;46.40;;;;;;5095281;28;19927;-60
2023/12/12 13:20:14;;;;;;;;;;;19.70;46.30;;;;;;5103977;28;19927;-60
2023/12/12 13:22:42;;;;;;;;;;;19.80;46.50;;;;;;5124028;27;19928;-60
2023/12/12 13:25:10;;;;;;;;;;;19.70;46.40;;;;;;5097551;28;20329;-60
2023/12/12 13:27:38;;;;;;;;;;;19.70;46.40;;;;;;5106465;28;19924;-60
2023/12/12 13:30:09;;;;;;;;;;;19.70;46.40;;;;;;5106776;28;19924;-60
2023/12/12 13:32:36;;;;;;;;;;;19.70;46.40;;;;;;5096197;28;20185;-60
2023/12/12 13:35:04;;;;;;;;;;;19.70;46.40;;;;;;5094763;28;19962;-60
2023/12/12 13:37:30;;;;;;;;;;;19.70;46.40;;;;;;5113760;28;19924;-60
2023/12/12 13:39:57;;;;;;;;;;;19.70;46.40;;;;;;5100982;28;19953;-60
2023/12/12 13:42:24;;;;;;;;;;;19.80;46.50;;;;;;5095445;28;19927;-60
2023/12/12 13:44:52;;;;;;;;;;;19.70;46.40;;;;;;5095344;28;19924;-60
2023/12/12 13:47:19;;;;;;;;;;;19.70;46.40;;;;;;5103247;28;19924;-60
2023/12/12 13:49:46;;;;;;;;;;;19.70;46.40;;;;;;5095177;28;19924;-60
2023/12/12 13:52:13;;;;;;;;;;;19.70;46.40;;;;;;5102243;28;19932;-60
2023/12/12 13:54:40;;;;;;;;;;;19.70;46.40;;;;;;5095403;28;19930;-60
2023/12/12 13:57:07;;;;;;;;;;;19.70;46.90;;;;;;5113165;28;19924;-60
2023/12/12 13:59:34;;;;;;;;;;;19.70;46.40;;;;;;5094994;28;19923;-60
2023/12/12 14:02:02;;;;;;;;;;;19.70;46.40;;;;;;5095348;28;19931;-60
2023/12/12 14:04:29;;;;;;;;;;;19.70;46.40;;;;;;5102582;28;19935;-60
2023/12/12 14:06:56;;;;;;;;;;;19.70;46.40;;;;;;5112820;28;19976;-60
2023/12/12 14:09:23;;;;;;;;;;;19.70;46.40;;;;;;5086964;28;19928;-60
2023/12/12 14:11:50;;;;;;;;;;;19.80;46.50;;;;;;5112426;28;19955;-60
2023/12/12 14:14:16;;;;;;;;;;;19.70;46.40;;;;;;5094491;28;19977;-60
2023/12/12 14:16:43;;;;;;;;;;;19.70;46.40;;;;;;5112641;28;19924;-60